Terminal Aerodrome Forecast
Issued by NWS

Home | Current Version | Previous Version | Text Only | Print | Product List | Glossary On
Versions: 1 2 3 4 5 6 7 8 9 10 11 12 13 14 15 16 17 18 19 20 21 22 23 24
574
FTUS46 KSGX 011428 AAA
TAFSAN
TAF AMD
KSAN 011428Z 0114/0218 21003KT P6SM SCT018 BKN028
     FM011800 24009KT P6SM SCT025
     FM020100 24005KT P6SM SCT023
     FM020600 VRB04KT P6SM BKN015
     FM021600 VRB04KT P6SM SCT020=

USA.gov is the U.S. government's official web portal to all federal, state and local government web resources and services.